sensor_id;sensor_type;location;lat;lon;timestamp;P1;P2;P0
72031;PMS5003;49185;42.320;23.198;2023-08-20T00:01:25;19.00;18.00;8.00
72031;PMS5003;49185;42.320;23.198;2023-08-20T00:03:52;17.50;17.00;9.00
72031;PMS5003;49185;42.320;23.198;2023-08-20T00:06:18;18.00;17.25;9.00
72031;PMS5003;49185;42.320;23.198;2023-08-20T00:08:44;17.50;17.50;8.00
72031;PMS5003;49185;42.320;23.198;2023-08-20T00:11:11;18.00;18.00;11.00
72031;PMS5003;49185;42.320;23.198;2023-08-20T00:13:37;19.00;18.50;9.00
72031;PMS5003;49185;42.320;23.198;2023-08-20T00:16:02;20.00;20.00;11.67
72031;PMS5003;49185;42.320;23.198;2023-08-20T00:18:28;22.00;21.25;11.00
72031;PMS5003;49185;42.320;23.198;2023-08-20T00:20:54;20.00;20.00;10.00
72031;PMS5003;49185;42.320;23.198;2023-08-20T00:23:19;21.00;20.00;11.67
72031;PMS5003;49185;42.320;23.198;2023-08-20T00:25:45;21.00;20.00;11.00
72031;PMS5003;49185;42.320;23.198;2023-08-20T00:28:12;19.25;19.25;10.75
72031;PMS5003;49185;42.320;23.198;2023-08-20T00:30:37;21.00;21.00;10.67
72031;PMS5003;49185;42.320;23.198;2023-08-20T00:33:03;22.67;22.67;12.00
72031;PMS5003;49185;42.320;23.198;2023-08-20T00:35:28;21.00;21.00;12.00
72031;PMS5003;49185;42.320;23.198;2023-08-20T00:37:54;23.00;22.00;11.00
72031;PMS5003;49185;42.320;23.198;2023-08-20T00:40:19;22.33;20.33;11.33
72031;PMS5003;49185;42.320;23.198;2023-08-20T00:42:45;23.00;20.00;11.00
72031;PMS5003;49185;42.320;23.198;2023-08-20T00:45:11;23.00;22.00;12.33
72031;PMS5003;49185;42.320;23.198;2023-08-20T00:47:36;23.00;21.33;12.67
72031;PMS5003;49185;42.320;23.198;2023-08-20T00:50:02;21.00;21.00;13.50
72031;PMS5003;49185;42.320;23.198;2023-08-20T00:52:28;22.00;20.75;13.75
72031;PMS5003;49185;42.320;23.198;2023-08-20T00:54:54;21.75;21.25;14.00
72031;PMS5003;49185;42.320;23.198;2023-08-20T00:57:20;25.67;23.67;15.00
72031;PMS5003;49185;42.320;23.198;2023-08-20T00:59:47;25.00;22.00;14.00
72031;PMS5003;49185;42.320;23.198;2023-08-20T01:02:13;21.25;21.25;14.25
72031;PMS5003;49185;42.320;23.198;2023-08-20T01:04:40;21.00;20.00;12.00
72031;PMS5003;49185;42.320;23.198;2023-08-20T01:09:57;24.00;22.00;13.50
72031;PMS5003;49185;42.320;23.198;2023-08-20T01:12:31;25.00;24.00;15.00
72031;PMS5003;49185;42.320;23.198;2023-08-20T01:14:56;24.00;22.00;14.00
72031;PMS5003;49185;42.320;23.198;2023-08-20T01:17:22;25.00;23.00;14.00
72031;PMS5003;49185;42.320;23.198;2023-08-20T01:19:47;25.00;23.00;12.00
72031;PMS5003;49185;42.320;23.198;2023-08-20T01:24:44;24.00;22.00;13.00
72031;PMS5003;49185;42.320;23.198;2023-08-20T01:27:20;23.00;23.00;13.00
72031;PMS5003;49185;42.320;23.198;2023-08-20T01:30:10;24.00;21.75;14.00
72031;PMS5003;49185;42.320;23.198;2023-08-20T01:32:37;22.50;22.25;14.25
72031;PMS5003;49185;42.320;23.198;2023-08-20T01:35:03;24.00;23.00;15.00
72031;PMS5003;49185;42.320;23.198;2023-08-20T01:37:30;23.75;22.75;15.00
72031;PMS5003;49185;42.320;23.198;2023-08-20T01:39:55;23.00;21.67;14.00
72031;PMS5003;49185;42.320;23.198;2023-08-20T01:42:21;24.00;23.00;13.00
72031;PMS5003;49185;42.320;23.198;2023-08-20T01:44:46;23.00;22.00;14.33
72031;PMS5003;49185;42.320;23.198;2023-08-20T01:47:12;22.00;21.00;15.00
72031;PMS5003;49185;42.320;23.198;2023-08-20T01:49:37;22.33;21.33;15.00
72031;PMS5003;49185;42.320;23.198;2023-08-20T01:52:02;25.00;22.33;15.00
72031;PMS5003;49185;42.320;23.198;2023-08-20T01:54:28;22.67;22.67;16.00
72031;PMS5003;49185;42.320;23.198;2023-08-20T01:56:53;23.67;21.00;16.00
72031;PMS5003;49185;42.320;23.198;2023-08-20T01:59:21;25.00;23.00;15.00
72031;PMS5003;49185;42.320;23.198;2023-08-20T02:01:47;22.50;21.00;13.00
72031;PMS5003;49185;42.320;23.198;2023-08-20T02:04:12;23.00;22.00;13.00
72031;PMS5003;49185;42.320;23.198;2023-08-20T02:06:38;22.00;21.00;13.00
72031;PMS5003;49185;42.320;23.198;2023-08-20T02:09:03;22.00;20.00;14.00
72031;PMS5003;49185;42.320;23.198;2023-08-20T02:11:28;25.00;23.00;14.00
72031;PMS5003;49185;42.320;23.198;2023-08-20T02:13:54;24.33;23.00;15.00
72031;PMS5003;49185;42.320;23.198;2023-08-20T02:16:19;25.00;23.00;15.00
72031;PMS5003;49185;42.320;23.198;2023-08-20T02:18:45;25.00;23.00;14.33
72031;PMS5003;49185;42.320;23.198;2023-08-20T02:21:10;23.00;23.00;15.67
72031;PMS5003;49185;42.320;23.198;2023-08-20T02:23:35;25.67;23.67;14.00
72031;PMS5003;49185;42.320;23.198;2023-08-20T02:26:01;25.67;23.67;14.00
72031;PMS5003;49185;42.320;23.198;2023-08-20T02:28:26;26.00;25.00;15.00
72031;PMS5003;49185;42.320;23.198;2023-08-20T02:30:52;23.67;23.00;16.67
72031;PMS5003;49185;42.320;23.198;2023-08-20T02:33:17;23.00;23.00;15.00
72031;PMS5003;49185;42.320;23.198;2023-08-20T02:35:42;22.00;21.00;14.00
72031;PMS5003;49185;42.320;23.198;2023-08-20T02:38:08;24.00;22.67;14.67
72031;PMS5003;49185;42.320;23.198;2023-08-20T02:40:38;25.33;25.33;15.00
72031;PMS5003;49185;42.320;23.198;2023-08-20T02:43:04;25.50;25.00;15.50
72031;PMS5003;49185;42.320;23.198;2023-08-20T02:45:30;25.67;24.67;17.67
72031;PMS5003;49185;42.320;23.198;2023-08-20T02:47:56;24.00;23.00;17.00
72031;PMS5003;49185;42.320;23.198;2023-08-20T02:50:21;25.00;23.00;17.00
72031;PMS5003;49185;42.320;23.198;2023-08-20T02:52:46;24.33;22.00;15.00
72031;PMS5003;49185;42.320;23.198;2023-08-20T02:55:12;24.00;23.00;15.00
72031;PMS5003;49185;42.320;23.198;2023-08-20T02:57:37;24.00;23.00;15.00
72031;PMS5003;49185;42.320;23.198;2023-08-20T03:00:02;26.00;22.00;15.00
72031;PMS5003;49185;42.320;23.198;2023-08-20T03:02:28;24.75;20.50;14.00
72031;PMS5003;49185;42.320;23.198;2023-08-20T03:04:54;23.00;22.67;15.00
72031;PMS5003;49185;42.320;23.198;2023-08-20T03:07:20;22.50;21.75;14.75
72031;PMS5003;49185;42.320;23.198;2023-08-20T03:09:46;23.00;21.00;14.00
72031;PMS5003;49185;42.320;23.198;2023-08-20T03:12:11;24.00;22.00;15.00
72031;PMS5003;49185;42.320;23.198;2023-08-20T03:14:37;25.00;23.00;16.00
72031;PMS5003;49185;42.320;23.198;2023-08-20T03:17:02;24.00;22.00;15.00
72031;PMS5003;49185;42.320;23.198;2023-08-20T03:19:29;23.67;21.33;14.00
72031;PMS5003;49185;42.320;23.198;2023-08-20T03:21:58;25.00;23.00;15.00
72031;PMS5003;49185;42.320;23.198;2023-08-20T03:24:23;23.00;22.00;14.00
72031;PMS5003;49185;42.320;23.198;2023-08-20T03:26:48;22.67;21.00;14.33
72031;PMS5003;49185;42.320;23.198;2023-08-20T03:29:14;24.00;22.67;15.67
72031;PMS5003;49185;42.320;23.198;2023-08-20T03:31:39;24.00;23.00;16.00
72031;PMS5003;49185;42.320;23.198;2023-08-20T03:34:04;22.00;22.00;15.00
72031;PMS5003;49185;42.320;23.198;2023-08-20T03:36:30;22.33;22.00;14.33
72031;PMS5003;49185;42.320;23.198;2023-08-20T03:38:55;22.33;21.33;15.00
72031;PMS5003;49185;42.320;23.198;2023-08-20T03:41:21;24.00;22.00;16.00
72031;PMS5003;49185;42.320;23.198;2023-08-20T03:43:46;25.33;22.67;15.33
72031;PMS5003;49185;42.320;23.198;2023-08-20T03:46:11;23.00;22.33;15.00
72031;PMS5003;49185;42.320;23.198;2023-08-20T03:48:37;24.00;24.00;15.00
72031;PMS5003;49185;42.320;23.198;2023-08-20T03:51:02;26.00;23.67;15.00
72031;PMS5003;49185;42.320;23.198;2023-08-20T03:53:28;24.00;21.00;15.00
72031;PMS5003;49185;42.320;23.198;2023-08-20T03:55:53;24.00;22.00;15.00
72031;PMS5003;49185;42.320;23.198;2023-08-20T03:58:18;24.00;23.00;14.00
72031;PMS5003;49185;42.320;23.198;2023-08-20T04:00:44;24.00;23.67;14.00
72031;PMS5003;49185;42.320;23.198;2023-08-20T04:03:09;23.00;23.00;12.00
72031;PMS5003;49185;42.320;23.198;2023-08-20T04:05:35;23.00;21.67;12.00
72031;PMS5003;49185;42.320;23.198;2023-08-20T04:08:02;24.25;22.25;12.00
72031;PMS5003;49185;42.320;23.198;2023-08-20T04:10:28;26.00;25.00;13.00
72031;PMS5003;49185;42.320;23.198;2023-08-20T04:12:53;25.00;24.00;13.00
72031;PMS5003;49185;42.320;23.198;2023-08-20T04:15:19;25.00;23.00;14.67
72031;PMS5003;49185;42.320;23.198;2023-08-20T04:17:44;24.00;22.00;14.00
72031;PMS5003;49185;42.320;23.198;2023-08-20T04:20:10;25.00;24.00;14.00
72031;PMS5003;49185;42.320;23.198;2023-08-20T04:22:35;24.67;23.00;15.00
72031;PMS5003;49185;42.320;23.198;2023-08-20T04:25:00;24.00;23.00;15.00
72031;PMS5003;49185;42.320;23.198;2023-08-20T04:27:26;23.00;22.00;13.00
72031;PMS5003;49185;42.320;23.198;2023-08-20T04:29:51;22.00;21.00;12.00
72031;PMS5003;49185;42.320;23.198;2023-08-20T04:32:17;24.00;23.00;14.00
72031;PMS5003;49185;42.320;23.198;2023-08-20T04:34:42;22.67;21.67;14.00
72031;PMS5003;49185;42.320;23.198;2023-08-20T04:37:07;23.67;22.33;14.00
72031;PMS5003;49185;42.320;23.198;2023-08-20T04:39:33;24.00;24.00;13.67
72031;PMS5003;49185;42.320;23.198;2023-08-20T04:41:58;23.00;23.00;14.00
72031;PMS5003;49185;42.320;23.198;2023-08-20T04:44:24;20.00;20.00;13.00
72031;PMS5003;49185;42.320;23.198;2023-08-20T04:46:49;23.00;21.00;14.00
72031;PMS5003;49185;42.320;23.198;2023-08-20T04:49:15;22.00;21.00;13.00
72031;PMS5003;49185;42.320;23.198;2023-08-20T04:51:40;25.00;24.00;15.00
72031;PMS5003;49185;42.320;23.198;2023-08-20T04:54:06;22.00;22.00;13.00
72031;PMS5003;49185;42.320;23.198;2023-08-20T04:56:31;21.00;21.00;11.00
72031;PMS5003;49185;42.320;23.198;2023-08-20T04:58:56;21.00;21.00;12.00
72031;PMS5003;49185;42.320;23.198;2023-08-20T05:01:22;20.00;19.33;11.00
72031;PMS5003;49185;42.320;23.198;2023-08-20T05:03:47;20.00;20.00;11.33
72031;PMS5003;49185;42.320;23.198;2023-08-20T05:06:12;19.00;19.00;12.00
72031;PMS5003;49185;42.320;23.198;2023-08-20T05:08:38;20.00;19.00;11.33
72031;PMS5003;49185;42.320;23.198;2023-08-20T05:11:03;20.00;18.00;9.00
72031;PMS5003;49185;42.320;23.198;2023-08-20T05:13:29;21.00;19.00;10.00
72031;PMS5003;49185;42.320;23.198;2023-08-20T05:15:54;23.00;22.00;10.00
72031;PMS5003;49185;42.320;23.198;2023-08-20T05:18:19;20.33;19.00;8.00
72031;PMS5003;49185;42.320;23.198;2023-08-20T05:20:45;20.00;19.00;8.00
72031;PMS5003;49185;42.320;23.198;2023-08-20T05:23:10;18.00;17.67;8.00
72031;PMS5003;49185;42.320;23.198;2023-08-20T05:25:36;19.67;19.00;10.00
72031;PMS5003;49185;42.320;23.198;2023-08-20T05:28:01;17.00;16.00;8.00
72031;PMS5003;49185;42.320;23.198;2023-08-20T05:30:26;18.00;18.00;9.00
72031;PMS5003;49185;42.320;23.198;2023-08-20T05:32:52;17.00;17.00;8.00
72031;PMS5003;49185;42.320;23.198;2023-08-20T05:35:17;19.67;19.00;7.33
72031;PMS5003;49185;42.320;23.198;2023-08-20T05:37:43;20.00;19.00;8.00
72031;PMS5003;49185;42.320;23.198;2023-08-20T05:40:08;18.00;17.00;8.33
72031;PMS5003;49185;42.320;23.198;2023-08-20T05:42:34;19.00;16.00;7.00
72031;PMS5003;49185;42.320;23.198;2023-08-20T05:45:00;19.00;18.33;10.67
72031;PMS5003;49185;42.320;23.198;2023-08-20T05:47:25;21.67;19.33;11.33
72031;PMS5003;49185;42.320;23.198;2023-08-20T05:49:51;19.67;18.67;9.67
72031;PMS5003;49185;42.320;23.198;2023-08-20T05:52:16;18.67;17.00;7.33
72031;PMS5003;49185;42.320;23.198;2023-08-20T05:54:41;18.00;17.00;9.00
72031;PMS5003;49185;42.320;23.198;2023-08-20T05:57:07;17.33;16.00;8.67
72031;PMS5003;49185;42.320;23.198;2023-08-20T05:59:32;16.67;16.00;8.00
72031;PMS5003;49185;42.320;23.198;2023-08-20T06:01:58;17.00;16.00;7.00
72031;PMS5003;49185;42.320;23.198;2023-08-20T06:04:23;18.00;16.00;8.00
72031;PMS5003;49185;42.320;23.198;2023-08-20T06:06:49;17.33;15.00;8.00
72031;PMS5003;49185;42.320;23.198;2023-08-20T06:09:14;18.00;15.00;7.00
72031;PMS5003;49185;42.320;23.198;2023-08-20T06:11:39;19.00;16.33;7.33
72031;PMS5003;49185;42.320;23.198;2023-08-20T06:14:05;19.00;18.33;9.33
72031;PMS5003;49185;42.320;23.198;2023-08-20T06:16:30;17.00;17.00;8.00
72031;PMS5003;49185;42.320;23.198;2023-08-20T06:18:57;17.00;17.00;7.33
72031;PMS5003;49185;42.320;23.198;2023-08-20T06:21:22;17.25;15.75;8.25
72031;PMS5003;49185;42.320;23.198;2023-08-20T06:23:48;17.00;15.00;7.67
72031;PMS5003;49185;42.320;23.198;2023-08-20T06:26:13;16.00;15.67;8.00
72031;PMS5003;49185;42.320;23.198;2023-08-20T06:28:39;17.33;17.00;9.33
72031;PMS5003;49185;42.320;23.198;2023-08-20T06:31:04;20.00;18.00;9.00
72031;PMS5003;49185;42.320;23.198;2023-08-20T06:33:29;18.00;17.00;8.00
72031;PMS5003;49185;42.320;23.198;2023-08-20T06:35:55;17.00;17.00;8.00
72031;PMS5003;49185;42.320;23.198;2023-08-20T06:38:20;17.00;17.00;7.00
72031;PMS5003;49185;42.320;23.198;2023-08-20T06:40:46;18.33;17.33;8.00
72031;PMS5003;49185;42.320;23.198;2023-08-20T06:43:11;17.00;16.00;7.00
72031;PMS5003;49185;42.320;23.198;2023-08-20T06:45:36;14.00;13.00;6.00
72031;PMS5003;49185;42.320;23.198;2023-08-20T06:48:02;19.00;17.00;8.00
72031;PMS5003;49185;42.320;23.198;2023-08-20T06:50:27;16.67;15.67;7.00
72031;PMS5003;49185;42.320;23.198;2023-08-20T06:52:53;19.00;17.00;9.00
72031;PMS5003;49185;42.320;23.198;2023-08-20T06:55:18;18.00;18.00;8.00
72031;PMS5003;49185;42.320;23.198;2023-08-20T06:57:44;16.00;16.00;8.00
72031;PMS5003;49185;42.320;23.198;2023-08-20T07:00:09;17.33;17.33;8.00
72031;PMS5003;49185;42.320;23.198;2023-08-20T07:02:35;15.00;14.00;7.00
72031;PMS5003;49185;42.320;23.198;2023-08-20T07:05:00;15.00;14.00;7.00
72031;PMS5003;49185;42.320;23.198;2023-08-20T07:07:26;18.00;14.00;7.00
72031;PMS5003;49185;42.320;23.198;2023-08-20T07:09:51;14.00;13.00;7.00
72031;PMS5003;49185;42.320;23.198;2023-08-20T07:12:17;11.00;10.00;7.00
72031;PMS5003;49185;42.320;23.198;2023-08-20T07:14:42;15.00;13.00;7.00
72031;PMS5003;49185;42.320;23.198;2023-08-20T07:17:07;17.00;15.00;7.00
72031;PMS5003;49185;42.320;23.198;2023-08-20T07:19:33;17.00;16.00;7.00
72031;PMS5003;49185;42.320;23.198;2023-08-20T07:21:58;17.67;16.00;8.00
72031;PMS5003;49185;42.320;23.198;2023-08-20T07:24:24;17.33;14.00;7.00
72031;PMS5003;49185;42.320;23.198;2023-08-20T07:26:49;17.00;14.00;7.00
72031;PMS5003;49185;42.320;23.198;2023-08-20T07:29:15;16.67;13.67;7.00
72031;PMS5003;49185;42.320;23.198;2023-08-20T07:31:40;16.00;13.00;6.00
72031;PMS5003;49185;42.320;23.198;2023-08-20T07:34:05;13.00;10.00;7.00
72031;PMS5003;49185;42.320;23.198;2023-08-20T07:36:31;13.33;11.33;7.00
72031;PMS5003;49185;42.320;23.198;2023-08-20T07:38:56;14.00;12.00;6.00
72031;PMS5003;49185;42.320;23.198;2023-08-20T07:41:22;13.00;11.00;6.00
72031;PMS5003;49185;42.320;23.198;2023-08-20T07:43:48;14.00;12.00;6.00
72031;PMS5003;49185;42.320;23.198;2023-08-20T07:46:14;13.50;10.25;7.00
72031;PMS5003;49185;42.320;23.198;2023-08-20T07:48:40;13.00;10.00;6.00
72031;PMS5003;49185;42.320;23.198;2023-08-20T07:51:06;13.00;11.33;6.00
72031;PMS5003;49185;42.320;23.198;2023-08-20T07:53:32;15.00;14.00;7.33
72031;PMS5003;49185;42.320;23.198;2023-08-20T07:55:59;15.50;15.50;9.50
72031;PMS5003;49185;42.320;23.198;2023-08-20T07:58:25;12.00;11.75;6.00
72031;PMS5003;49185;42.320;23.198;2023-08-20T08:00:50;13.00;12.00;8.00
72031;PMS5003;49185;42.320;23.198;2023-08-20T08:03:16;14.00;12.00;7.00
72031;PMS5003;49185;42.320;23.198;2023-08-20T08:05:41;14.00;13.00;6.00
72031;PMS5003;49185;42.320;23.198;2023-08-20T08:08:07;12.33;11.00;5.00
72031;PMS5003;49185;42.320;23.198;2023-08-20T08:10:32;12.00;10.67;7.00
72031;PMS5003;49185;42.320;23.198;2023-08-20T08:12:57;11.00;9.00;5.00
72031;PMS5003;49185;42.320;23.198;2023-08-20T08:15:23;7.00;6.67;4.00
72031;PMS5003;49185;42.320;23.198;2023-08-20T08:17:48;8.00;8.00;5.00
72031;PMS5003;49185;42.320;23.198;2023-08-20T08:20:14;8.33;7.33;4.00
72031;PMS5003;49185;42.320;23.198;2023-08-20T08:22:39;8.67;8.67;3.33
72031;PMS5003;49185;42.320;23.198;2023-08-20T08:25:05;11.67;11.33;6.33
72031;PMS5003;49185;42.320;23.198;2023-08-20T08:27:30;8.00;8.00;6.00
72031;PMS5003;49185;42.320;23.198;2023-08-20T08:29:56;9.67;8.33;4.00
72031;PMS5003;49185;42.320;23.198;2023-08-20T08:32:21;9.33;7.33;6.00
72031;PMS5003;49185;42.320;23.198;2023-08-20T08:34:47;9.00;9.00;6.00
72031;PMS5003;49185;42.320;23.198;2023-08-20T08:37:12;10.00;10.00;5.00
72031;PMS5003;49185;42.320;23.198;2023-08-20T08:39:38;8.00;8.00;3.67
72031;PMS5003;49185;42.320;23.198;2023-08-20T08:42:04;7.00;7.00;3.67
72031;PMS5003;49185;42.320;23.198;2023-08-20T08:44:32;7.00;7.00;4.00
72031;PMS5003;49185;42.320;23.198;2023-08-20T08:46:59;7.00;7.00;4.00
72031;PMS5003;49185;42.320;23.198;2023-08-20T08:49:24;5.75;5.75;2.00
72031;PMS5003;49185;42.320;23.198;2023-08-20T08:51:50;6.75;6.00;2.00
72031;PMS5003;49185;42.320;23.198;2023-08-20T08:54:18;4.75;4.75;3.00
72031;PMS5003;49185;42.320;23.198;2023-08-20T08:56:45;5.00;4.25;3.00
72031;PMS5003;49185;42.320;23.198;2023-08-20T08:59:11;6.00;5.50;3.00
72031;PMS5003;49185;42.320;23.198;2023-08-20T09:01:38;6.00;6.00;3.00
72031;PMS5003;49185;42.320;23.198;2023-08-20T09:04:04;8.75;8.00;3.00
72031;PMS5003;49185;42.320;23.198;2023-08-20T09:06:43;6.00;6.00;3.33
72031;PMS5003;49185;42.320;23.198;2023-08-20T09:09:12;6.00;6.00;3.00
72031;PMS5003;49185;42.320;23.198;2023-08-20T09:11:38;6.00;6.00;3.00
72031;PMS5003;49185;42.320;23.198;2023-08-20T09:14:03;8.00;8.00;5.00
72031;PMS5003;49185;42.320;23.198;2023-08-20T09:16:29;8.00;7.00;3.00
72031;PMS5003;49185;42.320;23.198;2023-08-20T09:18:57;9.50;9.50;5.00
72031;PMS5003;49185;42.320;23.198;2023-08-20T09:21:28;9.50;9.50;4.00
72031;PMS5003;49185;42.320;23.198;2023-08-20T09:23:54;6.25;6.25;3.50
72031;PMS5003;49185;42.320;23.198;2023-08-20T09:26:19;6.00;6.00;3.00
72031;PMS5003;49185;42.320;23.198;2023-08-20T09:28:45;5.00;5.00;2.00
72031;PMS5003;49185;42.320;23.198;2023-08-20T09:31:11;4.75;4.75;2.00
72031;PMS5003;49185;42.320;23.198;2023-08-20T09:36:16;9.50;8.00;4.00
72031;PMS5003;49185;42.320;23.198;2023-08-20T09:38:41;11.00;10.67;6.67
72031;PMS5003;49185;42.320;23.198;2023-08-20T09:41:08;8.67;8.00;3.00
72031;PMS5003;49185;42.320;23.198;2023-08-20T09:43:33;6.50;6.50;3.50
72031;PMS5003;49185;42.320;23.198;2023-08-20T09:46:03;7.00;6.00;4.00
72031;PMS5003;49185;42.320;23.198;2023-08-20T09:48:33;6.50;6.50;4.00
72031;PMS5003;49185;42.320;23.198;2023-08-20T09:50:59;7.50;7.50;3.50
72031;PMS5003;49185;42.320;23.198;2023-08-20T09:53:51;7.75;7.00;2.50
72031;PMS5003;49185;42.320;23.198;2023-08-20T09:58:50;6.67;6.67;4.00
72031;PMS5003;49185;42.320;23.198;2023-08-20T10:01:16;7.00;7.00;3.33
72031;PMS5003;49185;42.320;23.198;2023-08-20T10:03:42;6.50;6.00;3.00
72031;PMS5003;49185;42.320;23.198;2023-08-20T10:06:08;7.67;7.67;3.00
72031;PMS5003;49185;42.320;23.198;2023-08-20T10:08:34;6.00;6.00;3.00
72031;PMS5003;49185;42.320;23.198;2023-08-20T10:11:01;7.00;7.00;2.00
72031;PMS5003;49185;42.320;23.198;2023-08-20T10:13:27;8.00;8.00;3.00
72031;PMS5003;49185;42.320;23.198;2023-08-20T10:15:52;8.00;7.00;4.00
72031;PMS5003;49185;42.320;23.198;2023-08-20T10:18:19;7.00;7.00;4.00
72031;PMS5003;49185;42.320;23.198;2023-08-20T10:20:45;9.50;9.50;4.50
72031;PMS5003;49185;42.320;23.198;2023-08-20T10:23:11;9.00;9.00;5.00
72031;PMS5003;49185;42.320;23.198;2023-08-20T10:25:41;7.00;7.00;4.00
72031;PMS5003;49185;42.320;23.198;2023-08-20T10:28:11;8.75;8.00;4.00
72031;PMS5003;49185;42.320;23.198;2023-08-20T10:30:38;8.00;8.00;4.00
72031;PMS5003;49185;42.320;23.198;2023-08-20T10:33:03;7.00;6.00;4.00
72031;PMS5003;49185;42.320;23.198;2023-08-20T10:35:46;6.00;6.00;3.00
72031;PMS5003;49185;42.320;23.198;2023-08-20T10:38:16;5.00;5.00;2.00
72031;PMS5003;49185;42.320;23.198;2023-08-20T10:40:48;6.00;5.00;2.00
72031;PMS5003;49185;42.320;23.198;2023-08-20T10:43:34;5.00;5.00;1.00
72031;PMS5003;49185;42.320;23.198;2023-08-20T10:48:41;4.00;4.00;1.00
72031;PMS5003;49185;42.320;23.198;2023-08-20T10:51:14;5.00;5.00;0.00
72031;PMS5003;49185;42.320;23.198;2023-08-20T10:53:41;4.00;3.50;0.00
72031;PMS5003;49185;42.320;23.198;2023-08-20T10:56:12;6.00;4.00;1.00
72031;PMS5003;49185;42.320;23.198;2023-08-20T10:58:46;5.00;4.00;0.00
72031;PMS5003;49185;42.320;23.198;2023-08-20T11:01:19;4.25;4.25;1.00
72031;PMS5003;49185;42.320;23.198;2023-08-20T11:03:46;3.00;3.00;1.00
72031;PMS5003;49185;42.320;23.198;2023-08-20T11:06:13;4.75;4.75;1.00
72031;PMS5003;49185;42.320;23.198;2023-08-20T11:08:38;4.67;4.00;2.00
72031;PMS5003;49185;42.320;23.198;2023-08-20T11:11:04;4.00;4.00;3.00
72031;PMS5003;49185;42.320;23.198;2023-08-20T11:13:31;4.00;4.00;2.00
72031;PMS5003;49185;42.320;23.198;2023-08-20T11:15:58;6.00;6.00;1.75
72031;PMS5003;49185;42.320;23.198;2023-08-20T11:18:24;4.00;4.00;0.00
72031;PMS5003;49185;42.320;23.198;2023-08-20T11:20:50;5.00;4.33;0.00
72031;PMS5003;49185;42.320;23.198;2023-08-20T11:23:16;5.25;5.25;0.00
72031;PMS5003;49185;42.320;23.198;2023-08-20T11:25:42;2.00;2.00;0.00
72031;PMS5003;49185;42.320;23.198;2023-08-20T11:28:08;4.00;4.00;0.00
72031;PMS5003;49185;42.320;23.198;2023-08-20T11:30:33;3.00;3.00;0.00
72031;PMS5003;49185;42.320;23.198;2023-08-20T11:32:59;4.00;4.00;0.00
72031;PMS5003;49185;42.320;23.198;2023-08-20T11:35:26;4.00;4.00;0.00
72031;PMS5003;49185;42.320;23.198;2023-08-20T11:37:52;3.33;2.00;0.00
72031;PMS5003;49185;42.320;23.198;2023-08-20T11:40:21;5.00;4.00;0.00
72031;PMS5003;49185;42.320;23.198;2023-08-20T11:42:47;4.75;4.75;0.00
72031;PMS5003;49185;42.320;23.198;2023-08-20T11:45:13;4.25;3.25;0.00
72031;PMS5003;49185;42.320;23.198;2023-08-20T11:47:39;5.00;5.00;1.00
72031;PMS5003;49185;42.320;23.198;2023-08-20T11:50:06;5.50;5.00;1.00
72031;PMS5003;49185;42.320;23.198;2023-08-20T11:52:32;4.75;4.75;0.00
72031;PMS5003;49185;42.320;23.198;2023-08-20T11:54:59;7.00;7.00;2.00
72031;PMS5003;49185;42.320;23.198;2023-08-20T11:57:25;3.00;3.00;1.00
72031;PMS5003;49185;42.320;23.198;2023-08-20T11:59:51;3.00;3.00;1.00
72031;PMS5003;49185;42.320;23.198;2023-08-20T12:02:24;3.00;3.00;1.00
72031;PMS5003;49185;42.320;23.198;2023-08-20T12:04:51;4.00;4.00;2.00
72031;PMS5003;49185;42.320;23.198;2023-08-20T12:07:16;5.00;5.00;1.67
72031;PMS5003;49185;42.320;23.198;2023-08-20T12:09:42;6.00;6.00;3.00
72031;PMS5003;49185;42.320;23.198;2023-08-20T12:12:07;5.00;4.67;2.00
72031;PMS5003;49185;42.320;23.198;2023-08-20T12:14:34;4.00;3.75;0.00
72031;PMS5003;49185;42.320;23.198;2023-08-20T12:17:00;5.75;5.75;0.00
72031;PMS5003;49185;42.320;23.198;2023-08-20T12:19:26;7.00;7.00;2.00
72031;PMS5003;49185;42.320;23.198;2023-08-20T12:21:51;7.67;6.67;2.67
72031;PMS5003;49185;42.320;23.198;2023-08-20T12:24:17;7.00;5.67;2.67
72031;PMS5003;49185;42.320;23.198;2023-08-20T12:26:43;3.25;3.00;0.00
72031;PMS5003;49185;42.320;23.198;2023-08-20T12:29:08;4.00;4.00;0.00
72031;PMS5003;49185;42.320;23.198;2023-08-20T12:31:34;6.00;5.00;1.00
72031;PMS5003;49185;42.320;23.198;2023-08-20T12:34:00;6.00;6.00;1.00
72031;PMS5003;49185;42.320;23.198;2023-08-20T12:36:26;5.33;5.33;2.33
72031;PMS5003;49185;42.320;23.198;2023-08-20T12:38:51;5.00;5.00;3.00
72031;PMS5003;49185;42.320;23.198;2023-08-20T12:41:18;6.00;6.00;2.00
72031;PMS5003;49185;42.320;23.198;2023-08-20T12:43:44;5.00;5.00;2.00
72031;PMS5003;49185;42.320;23.198;2023-08-20T12:46:09;5.00;5.00;2.00
72031;PMS5003;49185;42.320;23.198;2023-08-20T12:48:35;7.00;7.00;3.00
72031;PMS5003;49185;42.320;23.198;2023-08-20T12:51:00;5.00;5.00;3.00
72031;PMS5003;49185;42.320;23.198;2023-08-20T12:53:25;5.00;4.33;3.00
72031;PMS5003;49185;42.320;23.198;2023-08-20T12:55:51;6.00;6.00;2.00
72031;PMS5003;49185;42.320;23.198;2023-08-20T12:58:16;7.00;7.00;4.00
72031;PMS5003;49185;42.320;23.198;2023-08-20T13:00:42;6.00;6.00;3.00
72031;PMS5003;49185;42.320;23.198;2023-08-20T13:03:08;6.00;5.67;3.00
72031;PMS5003;49185;42.320;23.198;2023-08-20T13:05:34;6.00;5.75;2.50
72031;PMS5003;49185;42.320;23.198;2023-08-20T13:07:59;5.00;5.00;2.00
72031;PMS5003;49185;42.320;23.198;2023-08-20T13:10:25;7.67;7.67;3.33
72031;PMS5003;49185;42.320;23.198;2023-08-20T13:12:51;5.00;5.00;3.00
72031;PMS5003;49185;42.320;23.198;2023-08-20T13:15:18;6.75;6.75;2.50
72031;PMS5003;49185;42.320;23.198;2023-08-20T13:17:45;6.50;6.50;2.75
72031;PMS5003;49185;42.320;23.198;2023-08-20T13:20:13;4.00;4.00;2.00
72031;PMS5003;49185;42.320;23.198;2023-08-20T13:22:38;6.33;6.33;3.33
72031;PMS5003;49185;42.320;23.198;2023-08-20T13:25:04;5.67;5.67;2.00
72031;PMS5003;49185;42.320;23.198;2023-08-20T13:27:32;5.00;5.00;1.00
72031;PMS5003;49185;42.320;23.198;2023-08-20T13:29:57;6.00;6.00;1.00
72031;PMS5003;49185;42.320;23.198;2023-08-20T13:32:23;5.67;5.67;2.33
72031;PMS5003;49185;42.320;23.198;2023-08-20T13:34:49;6.67;6.67;2.00
72031;PMS5003;49185;42.320;23.198;2023-08-20T13:37:15;5.50;5.50;2.25
72031;PMS5003;49185;42.320;23.198;2023-08-20T13:39:41;6.25;6.00;4.00
72031;PMS5003;49185;42.320;23.198;2023-08-20T13:42:06;7.00;6.00;4.00
72031;PMS5003;49185;42.320;23.198;2023-08-20T13:44:32;7.00;7.00;3.00
72031;PMS5003;49185;42.320;23.198;2023-08-20T13:46:58;7.00;7.00;4.00
72031;PMS5003;49185;42.320;23.198;2023-08-20T13:49:24;6.25;6.25;3.25
72031;PMS5003;49185;42.320;23.198;2023-08-20T13:51:49;6.00;6.00;3.00
72031;PMS5003;49185;42.320;23.198;2023-08-20T13:54:14;7.33;7.00;4.00
72031;PMS5003;49185;42.320;23.198;2023-08-20T13:56:40;7.00;7.00;3.00
72031;PMS5003;49185;42.320;23.198;2023-08-20T13:59:05;8.00;8.00;4.00